sensor_id;sensor_type;location;lat;lon;timestamp;P1;durP1;ratioP1;P2;durP2;ratioP2
54627;SDS011;40525;55.926;21.066;2023-08-30T00:01:24;6.80;;;1.60;;
54627;SDS011;40525;55.926;21.066;2023-08-30T00:03:51;2.20;;;1.40;;
54627;SDS011;40525;55.926;21.066;2023-08-30T00:06:18;1.60;;;1.30;;
54627;SDS011;40525;55.926;21.066;2023-08-30T00:08:45;2.10;;;1.10;;
54627;SDS011;40525;55.926;21.066;2023-08-30T00:11:13;3.60;;;1.40;;
54627;SDS011;40525;55.926;21.066;2023-08-30T00:13:41;1.90;;;1.40;;
54627;SDS011;40525;55.926;21.066;2023-08-30T00:16:09;1.60;;;1.40;;
54627;SDS011;40525;55.926;21.066;2023-08-30T00:18:36;1.60;;;1.50;;
54627;SDS011;40525;55.926;21.066;2023-08-30T00:21:03;2.70;;;1.30;;
54627;SDS011;40525;55.926;21.066;2023-08-30T00:23:30;4.00;;;1.40;;
54627;SDS011;40525;55.926;21.066;2023-08-30T00:25:57;4.30;;;1.50;;
54627;SDS011;40525;55.926;21.066;2023-08-30T00:28:24;1.70;;;1.20;;
54627;SDS011;40525;55.926;21.066;2023-08-30T00:30:53;2.50;;;1.30;;
54627;SDS011;40525;55.926;21.066;2023-08-30T00:33:21;2.50;;;1.50;;
54627;SDS011;40525;55.926;21.066;2023-08-30T00:35:55;3.00;;;1.40;;
54627;SDS011;40525;55.926;21.066;2023-08-30T00:38:23;2.20;;;1.40;;
54627;SDS011;40525;55.926;21.066;2023-08-30T00:40:50;2.00;;;1.40;;
54627;SDS011;40525;55.926;21.066;2023-08-30T00:43:17;2.60;;;1.50;;
54627;SDS011;40525;55.926;21.066;2023-08-30T00:45:44;1.80;;;1.10;;
54627;SDS011;40525;55.926;21.066;2023-08-30T00:48:12;2.10;;;1.30;;
54627;SDS011;40525;55.926;21.066;2023-08-30T00:50:39;1.40;;;1.20;;
54627;SDS011;40525;55.926;21.066;2023-08-30T00:53:07;1.60;;;1.50;;
54627;SDS011;40525;55.926;21.066;2023-08-30T00:55:35;2.80;;;1.70;;
54627;SDS011;40525;55.926;21.066;2023-08-30T00:58:03;3.00;;;1.40;;
54627;SDS011;40525;55.926;21.066;2023-08-30T01:00:33;2.00;;;1.40;;
54627;SDS011;40525;55.926;21.066;2023-08-30T01:03:01;2.60;;;1.40;;
54627;SDS011;40525;55.926;21.066;2023-08-30T01:05:30;3.20;;;1.10;;
54627;SDS011;40525;55.926;21.066;2023-08-30T01:07:57;2.70;;;1.50;;
54627;SDS011;40525;55.926;21.066;2023-08-30T01:10:35;1.30;;;1.20;;
54627;SDS011;40525;55.926;21.066;2023-08-30T01:13:24;1.60;;;1.40;;
54627;SDS011;40525;55.926;21.066;2023-08-30T01:15:54;1.60;;;1.50;;
54627;SDS011;40525;55.926;21.066;2023-08-30T01:18:22;3.20;;;1.30;;
54627;SDS011;40525;55.926;21.066;2023-08-30T01:20:59;4.60;;;1.40;;
54627;SDS011;40525;55.926;21.066;2023-08-30T01:26:14;2.10;;;1.30;;
54627;SDS011;40525;55.926;21.066;2023-08-30T01:28:51;3.00;;;1.70;;
54627;SDS011;40525;55.926;21.066;2023-08-30T01:31:21;4.00;;;1.70;;
54627;SDS011;40525;55.926;21.066;2023-08-30T01:33:52;2.50;;;1.60;;
54627;SDS011;40525;55.926;21.066;2023-08-30T01:36:21;3.40;;;1.30;;
54627;SDS011;40525;55.926;21.066;2023-08-30T01:38:48;1.80;;;1.30;;
54627;SDS011;40525;55.926;21.066;2023-08-30T01:41:16;4.10;;;1.50;;
54627;SDS011;40525;55.926;21.066;2023-08-30T01:43:44;2.40;;;1.70;;
54627;SDS011;40525;55.926;21.066;2023-08-30T01:46:13;2.00;;;1.40;;
54627;SDS011;40525;55.926;21.066;2023-08-30T01:48:43;2.40;;;1.60;;
54627;SDS011;40525;55.926;21.066;2023-08-30T01:51:14;2.00;;;1.40;;
54627;SDS011;40525;55.926;21.066;2023-08-30T01:53:46;2.80;;;1.50;;
54627;SDS011;40525;55.926;21.066;2023-08-30T01:56:14;1.20;;;1.10;;
54627;SDS011;40525;55.926;21.066;2023-08-30T01:58:41;1.60;;;1.50;;
54627;SDS011;40525;55.926;21.066;2023-08-30T02:01:08;1.40;;;1.20;;
54627;SDS011;40525;55.926;21.066;2023-08-30T02:03:35;1.90;;;1.50;;
54627;SDS011;40525;55.926;21.066;2023-08-30T02:06:05;1.80;;;1.50;;
54627;SDS011;40525;55.926;21.066;2023-08-30T02:08:41;4.70;;;2.40;;
54627;SDS011;40525;55.926;21.066;2023-08-30T02:11:19;2.00;;;1.40;;
54627;SDS011;40525;55.926;21.066;2023-08-30T02:13:50;2.00;;;1.40;;
54627;SDS011;40525;55.926;21.066;2023-08-30T02:16:20;3.70;;;2.30;;
54627;SDS011;40525;55.926;21.066;2023-08-30T02:18:50;4.00;;;1.40;;
54627;SDS011;40525;55.926;21.066;2023-08-30T02:21:18;4.70;;;1.60;;
54627;SDS011;40525;55.926;21.066;2023-08-30T02:23:49;3.20;;;1.40;;
54627;SDS011;40525;55.926;21.066;2023-08-30T02:26:18;3.00;;;1.50;;
54627;SDS011;40525;55.926;21.066;2023-08-30T02:28:46;2.80;;;1.70;;
54627;SDS011;40525;55.926;21.066;2023-08-30T02:31:13;2.10;;;1.70;;
54627;SDS011;40525;55.926;21.066;2023-08-30T02:33:41;3.40;;;1.40;;
54627;SDS011;40525;55.926;21.066;2023-08-30T02:36:10;2.10;;;1.70;;
54627;SDS011;40525;55.926;21.066;2023-08-30T02:38:37;1.70;;;1.50;;
54627;SDS011;40525;55.926;21.066;2023-08-30T02:41:04;2.20;;;1.30;;
54627;SDS011;40525;55.926;21.066;2023-08-30T02:43:31;2.40;;;1.50;;
54627;SDS011;40525;55.926;21.066;2023-08-30T02:45:58;5.00;;;1.90;;
54627;SDS011;40525;55.926;21.066;2023-08-30T02:48:28;1.60;;;1.40;;
54627;SDS011;40525;55.926;21.066;2023-08-30T02:50:55;5.20;;;1.50;;
54627;SDS011;40525;55.926;21.066;2023-08-30T02:53:22;5.10;;;2.00;;
54627;SDS011;40525;55.926;21.066;2023-08-30T02:55:49;3.90;;;1.60;;
54627;SDS011;40525;55.926;21.066;2023-08-30T02:58:16;3.40;;;1.80;;
54627;SDS011;40525;55.926;21.066;2023-08-30T03:00:43;4.50;;;1.90;;
54627;SDS011;40525;55.926;21.066;2023-08-30T03:03:11;2.50;;;1.70;;
54627;SDS011;40525;55.926;21.066;2023-08-30T03:05:38;3.10;;;1.40;;
54627;SDS011;40525;55.926;21.066;2023-08-30T03:08:05;4.60;;;1.60;;
54627;SDS011;40525;55.926;21.066;2023-08-30T03:10:33;4.10;;;1.60;;
54627;SDS011;40525;55.926;21.066;2023-08-30T03:13:00;2.30;;;1.40;;
54627;SDS011;40525;55.926;21.066;2023-08-30T03:15:27;5.20;;;2.10;;
54627;SDS011;40525;55.926;21.066;2023-08-30T03:17:57;5.30;;;1.70;;
54627;SDS011;40525;55.926;21.066;2023-08-30T03:20:24;4.10;;;1.70;;
54627;SDS011;40525;55.926;21.066;2023-08-30T03:22:51;2.00;;;1.50;;
54627;SDS011;40525;55.926;21.066;2023-08-30T03:25:18;4.00;;;2.00;;
54627;SDS011;40525;55.926;21.066;2023-08-30T03:27:46;3.50;;;1.70;;
54627;SDS011;40525;55.926;21.066;2023-08-30T03:30:13;3.00;;;1.70;;
54627;SDS011;40525;55.926;21.066;2023-08-30T03:32:41;2.70;;;1.70;;
54627;SDS011;40525;55.926;21.066;2023-08-30T03:35:09;2.60;;;2.00;;
54627;SDS011;40525;55.926;21.066;2023-08-30T03:37:37;5.10;;;1.50;;
54627;SDS011;40525;55.926;21.066;2023-08-30T03:40:04;2.40;;;1.40;;
54627;SDS011;40525;55.926;21.066;2023-08-30T03:42:32;2.70;;;1.60;;
54627;SDS011;40525;55.926;21.066;2023-08-30T03:45:01;2.90;;;1.50;;
54627;SDS011;40525;55.926;21.066;2023-08-30T03:47:29;4.40;;;1.50;;
54627;SDS011;40525;55.926;21.066;2023-08-30T03:49:56;2.60;;;1.60;;
54627;SDS011;40525;55.926;21.066;2023-08-30T03:52:23;2.30;;;1.50;;
54627;SDS011;40525;55.926;21.066;2023-08-30T03:54:51;2.70;;;1.60;;
54627;SDS011;40525;55.926;21.066;2023-08-30T03:57:18;1.90;;;1.50;;
54627;SDS011;40525;55.926;21.066;2023-08-30T03:59:45;2.20;;;1.70;;
54627;SDS011;40525;55.926;21.066;2023-08-30T04:02:12;3.00;;;1.60;;
54627;SDS011;40525;55.926;21.066;2023-08-30T04:04:39;3.40;;;1.70;;
54627;SDS011;40525;55.926;21.066;2023-08-30T04:07:08;3.60;;;1.70;;
54627;SDS011;40525;55.926;21.066;2023-08-30T04:09:36;2.00;;;1.60;;
54627;SDS011;40525;55.926;21.066;2023-08-30T04:12:03;2.70;;;1.50;;
54627;SDS011;40525;55.926;21.066;2023-08-30T04:14:31;2.90;;;1.60;;
54627;SDS011;40525;55.926;21.066;2023-08-30T04:16:59;3.10;;;1.70;;
54627;SDS011;40525;55.926;21.066;2023-08-30T04:19:26;2.80;;;1.60;;
54627;SDS011;40525;55.926;21.066;2023-08-30T04:21:53;2.10;;;1.80;;
54627;SDS011;40525;55.926;21.066;2023-08-30T04:24:20;1.90;;;1.60;;
54627;SDS011;40525;55.926;21.066;2023-08-30T04:26:47;2.70;;;2.00;;
54627;SDS011;40525;55.926;21.066;2023-08-30T04:29:18;3.30;;;2.10;;
54627;SDS011;40525;55.926;21.066;2023-08-30T04:31:45;2.90;;;1.60;;
54627;SDS011;40525;55.926;21.066;2023-08-30T04:34:12;4.80;;;2.10;;
54627;SDS011;40525;55.926;21.066;2023-08-30T04:36:39;3.20;;;2.00;;
54627;SDS011;40525;55.926;21.066;2023-08-30T04:39:06;3.00;;;2.00;;
54627;SDS011;40525;55.926;21.066;2023-08-30T04:41:33;3.90;;;2.30;;
54627;SDS011;40525;55.926;21.066;2023-08-30T04:44:00;2.40;;;1.50;;
54627;SDS011;40525;55.926;21.066;2023-08-30T04:46:28;3.30;;;1.60;;
54627;SDS011;40525;55.926;21.066;2023-08-30T04:48:55;2.60;;;1.50;;
54627;SDS011;40525;55.926;21.066;2023-08-30T04:51:22;1.80;;;1.50;;
54627;SDS011;40525;55.926;21.066;2023-08-30T04:53:50;3.70;;;1.70;;
54627;SDS011;40525;55.926;21.066;2023-08-30T04:56:18;2.70;;;1.80;;
54627;SDS011;40525;55.926;21.066;2023-08-30T04:58:45;4.90;;;1.70;;
54627;SDS011;40525;55.926;21.066;2023-08-30T05:01:13;3.40;;;2.10;;
54627;SDS011;40525;55.926;21.066;2023-08-30T05:03:45;2.30;;;1.80;;
54627;SDS011;40525;55.926;21.066;2023-08-30T05:06:14;5.40;;;1.80;;
54627;SDS011;40525;55.926;21.066;2023-08-30T05:08:43;2.30;;;1.70;;
54627;SDS011;40525;55.926;21.066;2023-08-30T05:11:11;4.60;;;1.70;;
54627;SDS011;40525;55.926;21.066;2023-08-30T05:13:40;3.30;;;2.00;;
54627;SDS011;40525;55.926;21.066;2023-08-30T05:16:07;2.20;;;1.70;;
54627;SDS011;40525;55.926;21.066;2023-08-30T05:18:34;2.60;;;1.70;;
54627;SDS011;40525;55.926;21.066;2023-08-30T05:21:01;2.20;;;1.60;;
54627;SDS011;40525;55.926;21.066;2023-08-30T05:23:31;2.60;;;1.60;;
54627;SDS011;40525;55.926;21.066;2023-08-30T05:25:58;3.50;;;1.60;;
54627;SDS011;40525;55.926;21.066;2023-08-30T05:28:25;3.30;;;1.70;;
54627;SDS011;40525;55.926;21.066;2023-08-30T05:30:53;4.00;;;1.70;;
54627;SDS011;40525;55.926;21.066;2023-08-30T05:33:43;3.20;;;2.10;;
54627;SDS011;40525;55.926;21.066;2023-08-30T05:36:42;1.80;;;1.40;;
54627;SDS011;40525;55.926;21.066;2023-08-30T05:39:22;4.80;;;2.00;;
54627;SDS011;40525;55.926;21.066;2023-08-30T05:41:54;1.80;;;1.40;;
54627;SDS011;40525;55.926;21.066;2023-08-30T05:44:22;3.50;;;1.80;;
54627;SDS011;40525;55.926;21.066;2023-08-30T05:46:49;3.00;;;1.40;;
54627;SDS011;40525;55.926;21.066;2023-08-30T05:49:16;3.00;;;1.60;;
54627;SDS011;40525;55.926;21.066;2023-08-30T05:51:44;4.10;;;2.10;;
54627;SDS011;40525;55.926;21.066;2023-08-30T05:54:12;2.80;;;2.40;;
54627;SDS011;40525;55.926;21.066;2023-08-30T05:56:39;2.70;;;1.80;;
54627;SDS011;40525;55.926;21.066;2023-08-30T05:59:07;3.80;;;1.80;;
54627;SDS011;40525;55.926;21.066;2023-08-30T06:01:34;2.10;;;1.70;;
54627;SDS011;40525;55.926;21.066;2023-08-30T06:04:02;2.40;;;1.80;;
54627;SDS011;40525;55.926;21.066;2023-08-30T06:06:31;3.40;;;2.00;;
54627;SDS011;40525;55.926;21.066;2023-08-30T06:08:58;2.60;;;2.00;;
54627;SDS011;40525;55.926;21.066;2023-08-30T06:11:25;4.10;;;2.00;;
54627;SDS011;40525;55.926;21.066;2023-08-30T06:13:52;4.10;;;1.70;;
54627;SDS011;40525;55.926;21.066;2023-08-30T06:16:20;4.40;;;1.90;;
54627;SDS011;40525;55.926;21.066;2023-08-30T06:18:49;3.20;;;1.90;;
54627;SDS011;40525;55.926;21.066;2023-08-30T06:21:16;3.30;;;1.90;;
54627;SDS011;40525;55.926;21.066;2023-08-30T06:23:43;2.80;;;1.90;;
54627;SDS011;40525;55.926;21.066;2023-08-30T06:26:10;2.10;;;1.60;;
54627;SDS011;40525;55.926;21.066;2023-08-30T06:28:37;3.60;;;1.80;;
54627;SDS011;40525;55.926;21.066;2023-08-30T06:31:04;2.60;;;1.90;;
54627;SDS011;40525;55.926;21.066;2023-08-30T06:33:32;3.90;;;1.70;;
54627;SDS011;40525;55.926;21.066;2023-08-30T06:35:59;2.30;;;1.70;;
54627;SDS011;40525;55.926;21.066;2023-08-30T06:38:26;2.00;;;1.60;;
54627;SDS011;40525;55.926;21.066;2023-08-30T06:40:52;3.70;;;2.10;;
54627;SDS011;40525;55.926;21.066;2023-08-30T06:43:20;2.80;;;1.60;;
54627;SDS011;40525;55.926;21.066;2023-08-30T06:45:47;4.00;;;1.70;;
54627;SDS011;40525;55.926;21.066;2023-08-30T06:48:14;3.70;;;1.80;;
54627;SDS011;40525;55.926;21.066;2023-08-30T06:50:41;2.10;;;1.70;;
54627;SDS011;40525;55.926;21.066;2023-08-30T06:53:08;3.20;;;1.50;;
54627;SDS011;40525;55.926;21.066;2023-08-30T06:55:36;4.10;;;1.90;;
54627;SDS011;40525;55.926;21.066;2023-08-30T06:58:04;3.50;;;1.70;;
54627;SDS011;40525;55.926;21.066;2023-08-30T07:00:32;4.10;;;2.00;;
54627;SDS011;40525;55.926;21.066;2023-08-30T07:02:59;2.50;;;1.70;;
54627;SDS011;40525;55.926;21.066;2023-08-30T07:05:26;5.40;;;1.70;;
54627;SDS011;40525;55.926;21.066;2023-08-30T07:07:53;3.20;;;1.80;;
54627;SDS011;40525;55.926;21.066;2023-08-30T07:10:21;2.80;;;2.00;;
54627;SDS011;40525;55.926;21.066;2023-08-30T07:12:47;2.10;;;1.90;;
54627;SDS011;40525;55.926;21.066;2023-08-30T07:15:15;2.00;;;1.80;;
54627;SDS011;40525;55.926;21.066;2023-08-30T07:17:43;3.20;;;2.10;;
54627;SDS011;40525;55.926;21.066;2023-08-30T07:20:14;2.20;;;1.40;;
54627;SDS011;40525;55.926;21.066;2023-08-30T07:22:41;2.40;;;1.70;;
54627;SDS011;40525;55.926;21.066;2023-08-30T07:25:08;2.90;;;2.10;;
54627;SDS011;40525;55.926;21.066;2023-08-30T07:27:37;4.30;;;2.30;;
54627;SDS011;40525;55.926;21.066;2023-08-30T07:30:04;2.50;;;2.00;;
54627;SDS011;40525;55.926;21.066;2023-08-30T07:32:32;3.80;;;1.60;;
54627;SDS011;40525;55.926;21.066;2023-08-30T07:34:59;4.40;;;1.80;;
54627;SDS011;40525;55.926;21.066;2023-08-30T07:37:26;2.50;;;1.90;;
54627;SDS011;40525;55.926;21.066;2023-08-30T07:39:53;2.40;;;2.00;;
54627;SDS011;40525;55.926;21.066;2023-08-30T07:42:20;5.50;;;1.90;;
54627;SDS011;40525;55.926;21.066;2023-08-30T07:44:47;4.40;;;1.80;;
54627;SDS011;40525;55.926;21.066;2023-08-30T07:47:14;3.30;;;1.90;;
54627;SDS011;40525;55.926;21.066;2023-08-30T07:49:41;3.20;;;1.70;;
54627;SDS011;40525;55.926;21.066;2023-08-30T07:52:09;2.00;;;1.80;;
54627;SDS011;40525;55.926;21.066;2023-08-30T07:54:37;4.60;;;2.00;;
54627;SDS011;40525;55.926;21.066;2023-08-30T07:57:08;1.90;;;1.70;;
54627;SDS011;40525;55.926;21.066;2023-08-30T07:59:35;2.90;;;1.80;;
54627;SDS011;40525;55.926;21.066;2023-08-30T08:02:04;1.70;;;1.60;;
54627;SDS011;40525;55.926;21.066;2023-08-30T08:04:34;2.30;;;1.90;;
54627;SDS011;40525;55.926;21.066;2023-08-30T08:07:02;3.20;;;1.70;;
54627;SDS011;40525;55.926;21.066;2023-08-30T08:09:31;6.80;;;2.10;;
54627;SDS011;40525;55.926;21.066;2023-08-30T08:11:59;2.90;;;1.80;;
54627;SDS011;40525;55.926;21.066;2023-08-30T08:14:26;5.30;;;2.00;;
54627;SDS011;40525;55.926;21.066;2023-08-30T08:16:53;3.00;;;1.70;;
54627;SDS011;40525;55.926;21.066;2023-08-30T08:19:21;3.70;;;1.70;;
54627;SDS011;40525;55.926;21.066;2023-08-30T08:21:51;3.20;;;1.70;;
54627;SDS011;40525;55.926;21.066;2023-08-30T08:24:21;3.80;;;2.00;;
54627;SDS011;40525;55.926;21.066;2023-08-30T08:26:48;1.80;;;1.40;;
54627;SDS011;40525;55.926;21.066;2023-08-30T08:29:15;2.90;;;1.50;;
54627;SDS011;40525;55.926;21.066;2023-08-30T08:31:43;4.00;;;1.90;;
54627;SDS011;40525;55.926;21.066;2023-08-30T08:34:11;7.50;;;1.80;;
54627;SDS011;40525;55.926;21.066;2023-08-30T08:36:40;4.50;;;2.20;;
54627;SDS011;40525;55.926;21.066;2023-08-30T08:39:08;3.70;;;1.90;;
54627;SDS011;40525;55.926;21.066;2023-08-30T08:44:09;2.40;;;1.60;;
54627;SDS011;40525;55.926;21.066;2023-08-30T08:46:37;4.20;;;1.70;;
54627;SDS011;40525;55.926;21.066;2023-08-30T08:51:41;2.80;;;1.70;;
54627;SDS011;40525;55.926;21.066;2023-08-30T08:54:10;1.90;;;1.70;;
54627;SDS011;40525;55.926;21.066;2023-08-30T08:56:38;3.60;;;2.10;;
54627;SDS011;40525;55.926;21.066;2023-08-30T08:59:06;5.40;;;1.80;;
54627;SDS011;40525;55.926;21.066;2023-08-30T09:01:36;2.20;;;1.70;;
54627;SDS011;40525;55.926;21.066;2023-08-30T09:04:07;3.40;;;1.70;;
54627;SDS011;40525;55.926;21.066;2023-08-30T09:06:37;1.70;;;1.50;;
54627;SDS011;40525;55.926;21.066;2023-08-30T09:09:10;4.30;;;1.80;;
54627;SDS011;40525;55.926;21.066;2023-08-30T09:11:38;2.50;;;1.80;;
54627;SDS011;40525;55.926;21.066;2023-08-30T09:14:09;1.60;;;1.20;;
54627;SDS011;40525;55.926;21.066;2023-08-30T09:16:36;2.70;;;1.70;;
54627;SDS011;40525;55.926;21.066;2023-08-30T09:19:04;3.00;;;1.70;;
54627;SDS011;40525;55.926;21.066;2023-08-30T09:21:34;6.80;;;1.60;;
54627;SDS011;40525;55.926;21.066;2023-08-30T09:24:05;4.60;;;1.70;;
54627;SDS011;40525;55.926;21.066;2023-08-30T09:26:33;3.00;;;1.70;;
54627;SDS011;40525;55.926;21.066;2023-08-30T09:29:05;3.30;;;1.50;;
54627;SDS011;40525;55.926;21.066;2023-08-30T09:31:34;2.10;;;1.70;;
54627;SDS011;40525;55.926;21.066;2023-08-30T09:34:05;3.90;;;1.90;;
54627;SDS011;40525;55.926;21.066;2023-08-30T09:36:40;2.80;;;1.80;;
54627;SDS011;40525;55.926;21.066;2023-08-30T09:39:09;2.60;;;1.60;;
54627;SDS011;40525;55.926;21.066;2023-08-30T09:44:12;2.40;;;1.50;;
54627;SDS011;40525;55.926;21.066;2023-08-30T09:46:44;4.90;;;1.70;;
54627;SDS011;40525;55.926;21.066;2023-08-30T09:49:20;1.70;;;1.40;;
54627;SDS011;40525;55.926;21.066;2023-08-30T09:51:50;1.90;;;1.60;;
54627;SDS011;40525;55.926;21.066;2023-08-30T09:54:20;2.00;;;1.50;;
54627;SDS011;40525;55.926;21.066;2023-08-30T09:57:05;3.60;;;2.00;;
54627;SDS011;40525;55.926;21.066;2023-08-30T09:59:32;3.50;;;1.80;;
54627;SDS011;40525;55.926;21.066;2023-08-30T10:02:00;3.10;;;2.20;;
54627;SDS011;40525;55.926;21.066;2023-08-30T10:04:28;2.50;;;1.70;;
54627;SDS011;40525;55.926;21.066;2023-08-30T10:06:56;4.40;;;2.00;;
54627;SDS011;40525;55.926;21.066;2023-08-30T10:09:25;5.10;;;2.00;;
54627;SDS011;40525;55.926;21.066;2023-08-30T10:11:52;2.80;;;1.80;;
54627;SDS011;40525;55.926;21.066;2023-08-30T10:14:19;3.50;;;2.00;;
54627;SDS011;40525;55.926;21.066;2023-08-30T10:16:47;2.50;;;2.00;;
54627;SDS011;40525;55.926;21.066;2023-08-30T10:19:15;2.40;;;1.50;;
54627;SDS011;40525;55.926;21.066;2023-08-30T10:21:44;4.50;;;1.60;;
54627;SDS011;40525;55.926;21.066;2023-08-30T10:24:11;2.70;;;1.50;;
54627;SDS011;40525;55.926;21.066;2023-08-30T10:27:00;2.30;;;2.00;;
54627;SDS011;40525;55.926;21.066;2023-08-30T10:29:34;2.50;;;1.90;;
54627;SDS011;40525;55.926;21.066;2023-08-30T10:32:03;2.80;;;1.90;;
54627;SDS011;40525;55.926;21.066;2023-08-30T10:34:35;1.80;;;1.60;;
54627;SDS011;40525;55.926;21.066;2023-08-30T10:37:05;5.10;;;1.80;;
54627;SDS011;40525;55.926;21.066;2023-08-30T10:39:34;2.50;;;1.80;;
54627;SDS011;40525;55.926;21.066;2023-08-30T10:42:11;4.20;;;2.10;;
54627;SDS011;40525;55.926;21.066;2023-08-30T10:47:39;4.30;;;2.00;;
54627;SDS011;40525;55.926;21.066;2023-08-30T10:50:08;4.30;;;2.10;;
54627;SDS011;40525;55.926;21.066;2023-08-30T10:52:37;3.10;;;1.90;;
54627;SDS011;40525;55.926;21.066;2023-08-30T10:55:14;4.40;;;1.90;;
54627;SDS011;40525;55.926;21.066;2023-08-30T10:57:42;3.70;;;1.80;;
54627;SDS011;40525;55.926;21.066;2023-08-30T11:02:49;3.50;;;2.20;;
54627;SDS011;40525;55.926;21.066;2023-08-30T11:05:18;2.80;;;2.10;;
54627;SDS011;40525;55.926;21.066;2023-08-30T11:07:49;2.70;;;2.20;;
54627;SDS011;40525;55.926;21.066;2023-08-30T11:10:20;3.60;;;2.10;;
54627;SDS011;40525;55.926;21.066;2023-08-30T11:12:48;3.00;;;1.80;;
54627;SDS011;40525;55.926;21.066;2023-08-30T11:15:16;3.50;;;1.70;;
54627;SDS011;40525;55.926;21.066;2023-08-30T11:17:45;3.80;;;1.80;;
54627;SDS011;40525;55.926;21.066;2023-08-30T11:20:13;3.20;;;1.90;;
54627;SDS011;40525;55.926;21.066;2023-08-30T11:22:47;2.40;;;1.80;;
54627;SDS011;40525;55.926;21.066;2023-08-30T11:25:16;2.60;;;1.90;;
54627;SDS011;40525;55.926;21.066;2023-08-30T11:27:44;2.60;;;1.90;;
54627;SDS011;40525;55.926;21.066;2023-08-30T11:30:11;2.40;;;1.80;;
54627;SDS011;40525;55.926;21.066;2023-08-30T11:32:39;3.70;;;1.90;;
54627;SDS011;40525;55.926;21.066;2023-08-30T11:35:10;4.30;;;2.10;;
54627;SDS011;40525;55.926;21.066;2023-08-30T11:37:37;3.90;;;2.30;;
54627;SDS011;40525;55.926;21.066;2023-08-30T11:40:05;2.70;;;2.10;;
54627;SDS011;40525;55.926;21.066;2023-08-30T11:42:33;2.90;;;1.90;;
54627;SDS011;40525;55.926;21.066;2023-08-30T11:45:00;3.00;;;2.20;;
54627;SDS011;40525;55.926;21.066;2023-08-30T11:47:29;3.20;;;1.90;;
54627;SDS011;40525;55.926;21.066;2023-08-30T11:49:57;3.70;;;2.00;;
54627;SDS011;40525;55.926;21.066;2023-08-30T11:52:26;4.90;;;2.40;;
54627;SDS011;40525;55.926;21.066;2023-08-30T11:54:54;3.90;;;2.00;;
54627;SDS011;40525;55.926;21.066;2023-08-30T11:57:21;3.80;;;2.30;;
54627;SDS011;40525;55.926;21.066;2023-08-30T11:59:49;2.90;;;2.00;;
54627;SDS011;40525;55.926;21.066;2023-08-30T12:02:17;3.70;;;2.00;;
54627;SDS011;40525;55.926;21.066;2023-08-30T12:04:46;3.20;;;2.00;;
54627;SDS011;40525;55.926;21.066;2023-08-30T12:07:24;4.30;;;2.40;;
54627;SDS011;40525;55.926;21.066;2023-08-30T12:10:06;4.10;;;2.10;;
54627;SDS011;40525;55.926;21.066;2023-08-30T12:12:35;4.50;;;2.40;;
54627;SDS011;40525;55.926;21.066;2023-08-30T12:15:10;2.60;;;2.00;;
54627;SDS011;40525;55.926;21.066;2023-08-30T12:17:38;2.50;;;2.20;;
54627;SDS011;40525;55.926;21.066;2023-08-30T12:20:05;2.10;;;1.80;;
54627;SDS011;40525;55.926;21.066;2023-08-30T12:22:41;3.30;;;2.10;;
54627;SDS011;40525;55.926;21.066;2023-08-30T12:27:45;4.30;;;2.40;;
54627;SDS011;40525;55.926;21.066;2023-08-30T12:30:14;3.00;;;1.90;;
54627;SDS011;40525;55.926;21.066;2023-08-30T12:32:46;1.90;;;1.60;;
54627;SDS011;40525;55.926;21.066;2023-08-30T12:35:14;2.80;;;1.90;;
54627;SDS011;40525;55.926;21.066;2023-08-30T12:37:42;2.50;;;1.80;;
54627;SDS011;40525;55.926;21.066;2023-08-30T12:40:10;3.90;;;2.20;;
54627;SDS011;40525;55.926;21.066;2023-08-30T12:42:37;3.00;;;2.20;;
54627;SDS011;40525;55.926;21.066;2023-08-30T12:45:04;3.80;;;2.40;;
54627;SDS011;40525;55.926;21.066;2023-08-30T12:47:34;3.40;;;2.50;;
54627;SDS011;40525;55.926;21.066;2023-08-30T12:50:02;4.40;;;2.20;;
54627;SDS011;40525;55.926;21.066;2023-08-30T12:52:30;3.90;;;2.30;;
54627;SDS011;40525;55.926;21.066;2023-08-30T12:54:57;3.00;;;2.30;;
54627;SDS011;40525;55.926;21.066;2023-08-30T12:57:24;4.40;;;2.50;;
54627;SDS011;40525;55.926;21.066;2023-08-30T12:59:52;2.90;;;2.40;;
54627;SDS011;40525;55.926;21.066;2023-08-30T13:02:19;3.40;;;2.30;;
54627;SDS011;40525;55.926;21.066;2023-08-30T13:04:47;4.60;;;2.40;;
54627;SDS011;40525;55.926;21.066;2023-08-30T13:07:14;3.70;;;2.50;;
54627;SDS011;40525;55.926;21.066;2023-08-30T13:09:41;4.50;;;2.50;;
54627;SDS011;40525;55.926;21.066;2023-08-30T13:12:08;2.50;;;2.10;;
54627;SDS011;40525;55.926;21.066;2023-08-30T13:14:35;3.10;;;2.50;;
54627;SDS011;40525;55.926;21.066;2023-08-30T13:17:02;2.50;;;2.00;;
54627;SDS011;40525;55.926;21.066;2023-08-30T13:19:29;2.90;;;2.60;;
54627;SDS011;40525;55.926;21.066;2023-08-30T13:21:56;3.80;;;2.30;;
54627;SDS011;40525;55.926;21.066;2023-08-30T13:24:23;5.00;;;2.70;;
54627;SDS011;40525;55.926;21.066;2023-08-30T13:26:50;2.60;;;2.20;;
54627;SDS011;40525;55.926;21.066;2023-08-30T13:29:17;3.00;;;2.60;;
54627;SDS011;40525;55.926;21.066;2023-08-30T13:31:45;4.40;;;2.70;;
54627;SDS011;40525;55.926;21.066;2023-08-30T13:34:11;3.40;;;2.30;;
54627;SDS011;40525;55.926;21.066;2023-08-30T13:36:39;3.90;;;2.40;;
54627;SDS011;40525;55.926;21.066;2023-08-30T13:39:06;2.50;;;2.30;;
54627;SDS011;40525;55.926;21.066;2023-08-30T13:41:33;3.20;;;2.20;;
54627;SDS011;40525;55.926;21.066;2023-08-30T13:44:06;3.90;;;2.30;;
54627;SDS011;40525;55.926;21.066;2023-08-30T13:46:34;3.20;;;2.20;;
54627;SDS011;40525;55.926;21.066;2023-08-30T13:49:01;3.00;;;2.50;;
54627;SDS011;40525;55.926;21.066;2023-08-30T13:51:28;5.00;;;2.80;;
54627;SDS011;40525;55.926;21.066;2023-08-30T13:53:55;3.20;;;2.80;;
54627;SDS011;40525;55.926;21.066;2023-08-30T13:56:23;3.90;;;2.50;;
54627;SDS011;40525;55.926;21.066;2023-08-30T13:58:50;3.10;;;2.40;;
54627;SDS011;40525;55.926;21.066;2023-08-30T14:01:17;4.20;;;2.70;;
54627;SDS011;40525;55.926;21.066;2023-08-30T14:03:44;3.70;;;2.50;;
54627;SDS011;40525;55.926;21.066;2023-08-30T14:06:11;4.30;;;2.80;;
54627;SDS011;40525;55.926;21.066;2023-08-30T14:08:38;4.10;;;2.90;;
54627;SDS011;40525;55.926;21.066;2023-08-30T14:11:06;3.20;;;2.20;;
54627;SDS011;40525;55.926;21.066;2023-08-30T14:13:33;4.00;;;3.10;;
54627;SDS011;40525;55.926;21.066;2023-08-30T14:16:00;4.20;;;3.10;;
54627;SDS011;40525;55.926;21.066;2023-08-30T14:18:31;4.20;;;2.90;;
54627;SDS011;40525;55.926;21.066;2023-08-30T14:20:59;3.70;;;2.70;;
54627;SDS011;40525;55.926;21.066;2023-08-30T14:23:26;3.40;;;2.90;;
54627;SDS011;40525;55.926;21.066;2023-08-30T14:28:39;3.90;;;2.90;;
54627;SDS011;40525;55.926;21.066;2023-08-30T14:31:07;5.90;;;3.70;;
54627;SDS011;40525;55.926;21.066;2023-08-30T14:33:37;4.30;;;3.60;;
54627;SDS011;40525;55.926;21.066;2023-08-30T14:36:09;6.00;;;3.50;;
54627;SDS011;40525;55.926;21.066;2023-08-30T14:38:37;4.50;;;3.70;;
54627;SDS011;40525;55.926;21.066;2023-08-30T14:41:05;5.50;;;3.60;;
54627;SDS011;40525;55.926;21.066;2023-08-30T14:43:32;4.90;;;3.50;;
54627;SDS011;40525;55.926;21.066;2023-08-30T14:46:03;4.00;;;3.40;;
54627;SDS011;40525;55.926;21.066;2023-08-30T14:48:37;5.00;;;3.50;;
54627;SDS011;40525;55.926;21.066;2023-08-30T14:51:04;4.80;;;3.40;;
54627;SDS011;40525;55.926;21.066;2023-08-30T14:53:33;4.80;;;3.40;;
54627;SDS011;40525;55.926;21.066;2023-08-30T14:56:00;3.50;;;2.80;;
54627;SDS011;40525;55.926;21.066;2023-08-30T14:58:27;4.40;;;3.30;;
54627;SDS011;40525;55.926;21.066;2023-08-30T15:00:55;4.50;;;3.00;;
54627;SDS011;40525;55.926;21.066;2023-08-30T15:03:22;6.60;;;3.40;;